sensor_id;sensor_type;location;lat;lon;timestamp;P1;durP1;ratioP1;P2;durP2;ratioP2
45077;SDS011;60508;42.622;25.416;2023-02-21T00:01:58;0.68;;;0.68;;
45077;SDS011;60508;42.622;25.416;2023-02-21T00:04:42;1.35;;;1.20;;
45077;SDS011;60508;42.622;25.416;2023-02-21T00:07:27;1.23;;;1.13;;
45077;SDS011;60508;42.622;25.416;2023-02-21T00:10:13;2.05;;;0.63;;
45077;SDS011;60508;42.622;25.416;2023-02-21T00:12:59;0.98;;;0.90;;
45077;SDS011;60508;42.622;25.416;2023-02-21T00:15:44;1.08;;;0.90;;
45077;SDS011;60508;42.622;25.416;2023-02-21T00:18:32;1.13;;;0.85;;
45077;SDS011;60508;42.622;25.416;2023-02-21T00:21:18;1.40;;;1.00;;
45077;SDS011;60508;42.622;25.416;2023-02-21T00:24:03;1.38;;;0.98;;
45077;SDS011;60508;42.622;25.416;2023-02-21T00:26:49;1.00;;;0.90;;
45077;SDS011;60508;42.622;25.416;2023-02-21T00:29:34;1.58;;;1.30;;
45077;SDS011;60508;42.622;25.416;2023-02-21T00:32:20;1.20;;;1.10;;
45077;SDS011;60508;42.622;25.416;2023-02-21T00:35:05;1.05;;;0.95;;
45077;SDS011;60508;42.622;25.416;2023-02-21T00:37:51;3.10;;;0.70;;
45077;SDS011;60508;42.622;25.416;2023-02-21T00:40:36;1.60;;;1.05;;
45077;SDS011;60508;42.622;25.416;2023-02-21T00:43:28;0.98;;;0.85;;
45077;SDS011;60508;42.622;25.416;2023-02-21T00:46:15;5.18;;;2.28;;
45077;SDS011;60508;42.622;25.416;2023-02-21T00:49:01;1.88;;;1.27;;
45077;SDS011;60508;42.622;25.416;2023-02-21T00:51:46;0.95;;;0.82;;
45077;SDS011;60508;42.622;25.416;2023-02-21T00:54:31;1.02;;;0.80;;
45077;SDS011;60508;42.622;25.416;2023-02-21T00:57:16;1.00;;;0.85;;
45077;SDS011;60508;42.622;25.416;2023-02-21T01:00:00;0.93;;;0.77;;
45077;SDS011;60508;42.622;25.416;2023-02-21T01:02:45;0.82;;;0.65;;
45077;SDS011;60508;42.622;25.416;2023-02-21T01:05:30;0.90;;;0.77;;
45077;SDS011;60508;42.622;25.416;2023-02-21T01:08:14;1.13;;;0.80;;
45077;SDS011;60508;42.622;25.416;2023-02-21T01:10:59;1.35;;;0.70;;
45077;SDS011;60508;42.622;25.416;2023-02-21T01:13:44;1.20;;;0.90;;
45077;SDS011;60508;42.622;25.416;2023-02-21T01:16:31;1.70;;;0.70;;
45077;SDS011;60508;42.622;25.416;2023-02-21T01:19:16;1.52;;;1.10;;
45077;SDS011;60508;42.622;25.416;2023-02-21T01:22:04;2.20;;;1.60;;
45077;SDS011;60508;42.622;25.416;2023-02-21T01:24:49;5.07;;;2.85;;
45077;SDS011;60508;42.622;25.416;2023-02-21T01:27:36;2.78;;;2.38;;
45077;SDS011;60508;42.622;25.416;2023-02-21T01:30:21;2.10;;;1.90;;
45077;SDS011;60508;42.622;25.416;2023-02-21T01:33:07;3.42;;;1.88;;
45077;SDS011;60508;42.622;25.416;2023-02-21T01:35:52;4.35;;;2.88;;
45077;SDS011;60508;42.622;25.416;2023-02-21T01:38:36;2.92;;;1.92;;
45077;SDS011;60508;42.622;25.416;2023-02-21T01:41:22;2.28;;;1.65;;
45077;SDS011;60508;42.622;25.416;2023-02-21T01:47:15;4.07;;;2.17;;
45077;SDS011;60508;42.622;25.416;2023-02-21T01:50:00;2.70;;;1.90;;
45077;SDS011;60508;42.622;25.416;2023-02-21T01:52:48;5.03;;;2.42;;
45077;SDS011;60508;42.622;25.416;2023-02-21T01:55:33;4.20;;;2.72;;
45077;SDS011;60508;42.622;25.416;2023-02-21T01:58:22;3.97;;;2.47;;
45077;SDS011;60508;42.622;25.416;2023-02-21T02:01:09;3.13;;;2.45;;
45077;SDS011;60508;42.622;25.416;2023-02-21T02:04:02;4.97;;;2.30;;
45077;SDS011;60508;42.622;25.416;2023-02-21T02:06:46;4.05;;;2.85;;
45077;SDS011;60508;42.622;25.416;2023-02-21T02:09:32;3.67;;;2.25;;
45077;SDS011;60508;42.622;25.416;2023-02-21T02:12:28;3.08;;;2.47;;
45077;SDS011;60508;42.622;25.416;2023-02-21T02:32:36;2.78;;;1.30;;
45077;SDS011;60508;42.622;25.416;2023-02-21T02:35:12;3.97;;;1.45;;
45077;SDS011;60508;42.622;25.416;2023-02-21T02:40:34;2.10;;;1.25;;
45077;SDS011;60508;42.622;25.416;2023-02-21T02:45:36;1.10;;;0.95;;
45077;SDS011;60508;42.622;25.416;2023-02-21T02:48:20;3.72;;;1.15;;
45077;SDS011;60508;42.622;25.416;2023-02-21T02:50:48;4.05;;;1.10;;
45077;SDS011;60508;42.622;25.416;2023-02-21T02:53:19;1.20;;;0.90;;
45077;SDS011;60508;42.622;25.416;2023-02-21T02:55:49;2.15;;;0.63;;
45077;SDS011;60508;42.622;25.416;2023-02-21T02:58:21;0.85;;;0.80;;
45077;SDS011;60508;42.622;25.416;2023-02-21T03:00:55;0.80;;;0.80;;
45077;SDS011;60508;42.622;25.416;2023-02-21T03:03:53;1.08;;;0.70;;
45077;SDS011;60508;42.622;25.416;2023-02-21T03:11:59;3.28;;;1.65;;
45077;SDS011;60508;42.622;25.416;2023-02-21T03:14:38;4.20;;;2.22;;
45077;SDS011;60508;42.622;25.416;2023-02-21T03:17:13;6.32;;;3.30;;
45077;SDS011;60508;42.622;25.416;2023-02-21T03:19:46;4.25;;;3.22;;
45077;SDS011;60508;42.622;25.416;2023-02-21T03:22:18;5.38;;;3.50;;
45077;SDS011;60508;42.622;25.416;2023-02-21T03:24:48;3.33;;;2.70;;
45077;SDS011;60508;42.622;25.416;2023-02-21T03:27:17;4.30;;;2.90;;
45077;SDS011;60508;42.622;25.416;2023-02-21T03:29:53;3.20;;;2.80;;
45077;SDS011;60508;42.622;25.416;2023-02-21T03:35:22;2.92;;;2.28;;
45077;SDS011;60508;42.622;25.416;2023-02-21T03:37:50;3.60;;;2.45;;
45077;SDS011;60508;42.622;25.416;2023-02-21T03:40:22;1.73;;;1.33;;
45077;SDS011;60508;42.622;25.416;2023-02-21T03:42:52;1.88;;;1.58;;
45077;SDS011;60508;42.622;25.416;2023-02-21T03:45:19;3.85;;;2.00;;
45077;SDS011;60508;42.622;25.416;2023-02-21T03:48:00;3.15;;;2.13;;
45077;SDS011;60508;42.622;25.416;2023-02-21T03:50:26;3.67;;;1.65;;
45077;SDS011;60508;42.622;25.416;2023-02-21T03:52:52;5.00;;;2.00;;
45077;SDS011;60508;42.622;25.416;2023-02-21T03:55:19;2.10;;;1.77;;
45077;SDS011;60508;42.622;25.416;2023-02-21T03:57:46;2.05;;;1.23;;
45077;SDS011;60508;42.622;25.416;2023-02-21T04:00:12;1.02;;;0.93;;
45077;SDS011;60508;42.622;25.416;2023-02-21T04:02:42;2.95;;;1.17;;
45077;SDS011;60508;42.622;25.416;2023-02-21T04:05:17;3.90;;;2.15;;
45077;SDS011;60508;42.622;25.416;2023-02-21T04:07:43;5.47;;;2.13;;
45077;SDS011;60508;42.622;25.416;2023-02-21T04:10:09;4.10;;;2.22;;
45077;SDS011;60508;42.622;25.416;2023-02-21T04:12:41;4.45;;;2.80;;
45077;SDS011;60508;42.622;25.416;2023-02-21T04:15:07;7.05;;;3.85;;
45077;SDS011;60508;42.622;25.416;2023-02-21T04:17:33;8.95;;;4.18;;
45077;SDS011;60508;42.622;25.416;2023-02-21T04:20:00;7.70;;;3.08;;
45077;SDS011;60508;42.622;25.416;2023-02-21T04:22:27;3.88;;;2.40;;
45077;SDS011;60508;42.622;25.416;2023-02-21T04:24:53;4.13;;;2.67;;
45077;SDS011;60508;42.622;25.416;2023-02-21T04:27:22;3.58;;;1.80;;
45077;SDS011;60508;42.622;25.416;2023-02-21T04:29:53;3.08;;;1.98;;
45077;SDS011;60508;42.622;25.416;2023-02-21T04:32:18;2.08;;;1.02;;
45077;SDS011;60508;42.622;25.416;2023-02-21T04:34:44;1.85;;;1.45;;
45077;SDS011;60508;42.622;25.416;2023-02-21T04:37:11;0.90;;;0.80;;
45077;SDS011;60508;42.622;25.416;2023-02-21T04:39:37;2.13;;;1.30;;
45077;SDS011;60508;42.622;25.416;2023-02-21T04:42:03;2.15;;;1.08;;
45077;SDS011;60508;42.622;25.416;2023-02-21T04:44:30;2.83;;;1.88;;
45077;SDS011;60508;42.622;25.416;2023-02-21T04:46:56;2.03;;;1.15;;
45077;SDS011;60508;42.622;25.416;2023-02-21T04:49:23;1.10;;;0.80;;
45077;SDS011;60508;42.622;25.416;2023-02-21T04:51:52;2.55;;;1.75;;
45077;SDS011;60508;42.622;25.416;2023-02-21T04:54:18;1.17;;;0.80;;
45077;SDS011;60508;42.622;25.416;2023-02-21T04:56:46;0.75;;;0.68;;
45077;SDS011;60508;42.622;25.416;2023-02-21T04:59:13;1.20;;;0.90;;
45077;SDS011;60508;42.622;25.416;2023-02-21T05:01:39;1.58;;;1.38;;
45077;SDS011;60508;42.622;25.416;2023-02-21T05:04:05;1.27;;;1.05;;
45077;SDS011;60508;42.622;25.416;2023-02-21T05:06:32;0.90;;;0.80;;
45077;SDS011;60508;42.622;25.416;2023-02-21T05:08:59;1.95;;;1.33;;
45077;SDS011;60508;42.622;25.416;2023-02-21T05:11:27;1.52;;;1.42;;
45077;SDS011;60508;42.622;25.416;2023-02-21T05:13:53;2.33;;;1.33;;
45077;SDS011;60508;42.622;25.416;2023-02-21T05:16:19;1.73;;;1.20;;
45077;SDS011;60508;42.622;25.416;2023-02-21T05:18:46;4.57;;;1.05;;
45077;SDS011;60508;42.622;25.416;2023-02-21T05:21:14;0.73;;;0.73;;
45077;SDS011;60508;42.622;25.416;2023-02-21T05:23:41;2.72;;;0.90;;
45077;SDS011;60508;42.622;25.416;2023-02-21T05:26:21;1.67;;;1.00;;
45077;SDS011;60508;42.622;25.416;2023-02-21T05:28:52;2.33;;;1.20;;
45077;SDS011;60508;42.622;25.416;2023-02-21T05:31:18;1.20;;;1.10;;
45077;SDS011;60508;42.622;25.416;2023-02-21T05:33:46;1.48;;;1.27;;
45077;SDS011;60508;42.622;25.416;2023-02-21T05:36:12;2.03;;;1.35;;
45077;SDS011;60508;42.622;25.416;2023-02-21T05:38:49;2.58;;;1.10;;
45077;SDS011;60508;42.622;25.416;2023-02-21T05:41:17;9.93;;;1.70;;
45077;SDS011;60508;42.622;25.416;2023-02-21T05:43:44;4.25;;;1.67;;
45077;SDS011;60508;42.622;25.416;2023-02-21T05:46:16;6.50;;;1.63;;
45077;SDS011;60508;42.622;25.416;2023-02-21T05:48:50;4.32;;;1.60;;
45077;SDS011;60508;42.622;25.416;2023-02-21T05:51:16;1.63;;;1.33;;
45077;SDS011;60508;42.622;25.416;2023-02-21T05:53:43;2.55;;;1.20;;
45077;SDS011;60508;42.622;25.416;2023-02-21T05:56:10;6.88;;;1.40;;
45077;SDS011;60508;42.622;25.416;2023-02-21T05:58:37;2.92;;;1.70;;
45077;SDS011;60508;42.622;25.416;2023-02-21T06:01:04;9.90;;;2.30;;
45077;SDS011;60508;42.622;25.416;2023-02-21T06:03:30;6.43;;;3.03;;
45077;SDS011;60508;42.622;25.416;2023-02-21T06:05:57;5.00;;;3.03;;
45077;SDS011;60508;42.622;25.416;2023-02-21T06:08:23;6.60;;;3.45;;
45077;SDS011;60508;42.622;25.416;2023-02-21T06:10:49;9.75;;;4.65;;
45077;SDS011;60508;42.622;25.416;2023-02-21T06:13:16;5.38;;;3.28;;
45077;SDS011;60508;42.622;25.416;2023-02-21T06:15:43;3.55;;;2.90;;
45077;SDS011;60508;42.622;25.416;2023-02-21T06:18:11;2.65;;;2.45;;
45077;SDS011;60508;42.622;25.416;2023-02-21T06:20:38;1.70;;;1.42;;
45077;SDS011;60508;42.622;25.416;2023-02-21T06:23:04;6.70;;;4.00;;
45077;SDS011;60508;42.622;25.416;2023-02-21T06:25:30;2.65;;;1.70;;
45077;SDS011;60508;42.622;25.416;2023-02-21T06:27:56;5.00;;;1.67;;
45077;SDS011;60508;42.622;25.416;2023-02-21T06:30:21;4.97;;;3.70;;
45077;SDS011;60508;42.622;25.416;2023-02-21T06:32:48;1.67;;;1.52;;
45077;SDS011;60508;42.622;25.416;2023-02-21T06:35:14;14.13;;;7.18;;
45077;SDS011;60508;42.622;25.416;2023-02-21T06:37:40;4.55;;;2.58;;
45077;SDS011;60508;42.622;25.416;2023-02-21T06:40:07;6.68;;;3.47;;
45077;SDS011;60508;42.622;25.416;2023-02-21T06:42:34;6.15;;;3.67;;
45077;SDS011;60508;42.622;25.416;2023-02-21T06:45:01;3.95;;;2.38;;
45077;SDS011;60508;42.622;25.416;2023-02-21T06:47:28;8.77;;;4.00;;
45077;SDS011;60508;42.622;25.416;2023-02-21T06:49:53;6.35;;;3.67;;
45077;SDS011;60508;42.622;25.416;2023-02-21T06:52:20;4.05;;;2.80;;
45077;SDS011;60508;42.622;25.416;2023-02-21T06:54:48;8.48;;;2.95;;
45077;SDS011;60508;42.622;25.416;2023-02-21T06:57:15;4.40;;;3.38;;
45077;SDS011;60508;42.622;25.416;2023-02-21T06:59:40;11.65;;;6.43;;
45077;SDS011;60508;42.622;25.416;2023-02-21T07:02:07;4.40;;;3.33;;
45077;SDS011;60508;42.622;25.416;2023-02-21T07:04:45;6.85;;;4.53;;
45077;SDS011;60508;42.622;25.416;2023-02-21T07:07:11;8.43;;;5.43;;
45077;SDS011;60508;42.622;25.416;2023-02-21T07:09:38;6.18;;;3.03;;
45077;SDS011;60508;42.622;25.416;2023-02-21T07:12:04;10.43;;;3.92;;
45077;SDS011;60508;42.622;25.416;2023-02-21T07:14:31;2.50;;;1.70;;
45077;SDS011;60508;42.622;25.416;2023-02-21T07:16:57;7.78;;;2.78;;
45077;SDS011;60508;42.622;25.416;2023-02-21T07:19:23;2.85;;;2.10;;
45077;SDS011;60508;42.622;25.416;2023-02-21T07:21:49;2.67;;;2.40;;
45077;SDS011;60508;42.622;25.416;2023-02-21T07:24:15;7.28;;;2.40;;
45077;SDS011;60508;42.622;25.416;2023-02-21T07:26:41;6.35;;;2.33;;
45077;SDS011;60508;42.622;25.416;2023-02-21T07:29:07;5.50;;;2.03;;
45077;SDS011;60508;42.622;25.416;2023-02-21T07:31:33;5.22;;;2.17;;
45077;SDS011;60508;42.622;25.416;2023-02-21T07:34:00;2.30;;;1.73;;
45077;SDS011;60508;42.622;25.416;2023-02-21T07:36:26;2.75;;;1.80;;
45077;SDS011;60508;42.622;25.416;2023-02-21T07:38:52;3.80;;;1.52;;
45077;SDS011;60508;42.622;25.416;2023-02-21T07:41:19;12.05;;;2.88;;
45077;SDS011;60508;42.622;25.416;2023-02-21T07:43:46;4.38;;;1.58;;
45077;SDS011;60508;42.622;25.416;2023-02-21T07:46:12;2.38;;;1.38;;
45077;SDS011;60508;42.622;25.416;2023-02-21T07:48:39;1.30;;;1.20;;
45077;SDS011;60508;42.622;25.416;2023-02-21T07:51:06;3.08;;;1.50;;
45077;SDS011;60508;42.622;25.416;2023-02-21T07:53:33;3.75;;;1.83;;
45077;SDS011;60508;42.622;25.416;2023-02-21T07:56:00;2.70;;;2.05;;
45077;SDS011;60508;42.622;25.416;2023-02-21T07:58:26;4.82;;;1.88;;
45077;SDS011;60508;42.622;25.416;2023-02-21T08:00:53;12.77;;;1.70;;
45077;SDS011;60508;42.622;25.416;2023-02-21T08:03:20;4.45;;;2.25;;
45077;SDS011;60508;42.622;25.416;2023-02-21T08:05:46;5.45;;;2.63;;
45077;SDS011;60508;42.622;25.416;2023-02-21T08:08:13;5.32;;;2.47;;
45077;SDS011;60508;42.622;25.416;2023-02-21T08:10:39;6.40;;;2.05;;
45077;SDS011;60508;42.622;25.416;2023-02-21T08:13:06;5.10;;;2.25;;
45077;SDS011;60508;42.622;25.416;2023-02-21T08:15:31;4.47;;;3.30;;
45077;SDS011;60508;42.622;25.416;2023-02-21T08:17:57;6.28;;;2.38;;
45077;SDS011;60508;42.622;25.416;2023-02-21T08:20:23;4.20;;;2.03;;
45077;SDS011;60508;42.622;25.416;2023-02-21T08:22:49;2.95;;;1.80;;
45077;SDS011;60508;42.622;25.416;2023-02-21T08:25:15;6.25;;;1.73;;
45077;SDS011;60508;42.622;25.416;2023-02-21T08:27:41;2.60;;;1.50;;
45077;SDS011;60508;42.622;25.416;2023-02-21T08:30:10;4.75;;;1.55;;
45077;SDS011;60508;42.622;25.416;2023-02-21T08:32:39;2.38;;;1.30;;
45077;SDS011;60508;42.622;25.416;2023-02-21T08:35:06;9.65;;;2.10;;
45077;SDS011;60508;42.622;25.416;2023-02-21T08:37:32;5.97;;;1.75;;
45077;SDS011;60508;42.622;25.416;2023-02-21T08:40:01;3.70;;;1.60;;
45077;SDS011;60508;42.622;25.416;2023-02-21T08:42:28;11.60;;;1.70;;
45077;SDS011;60508;42.622;25.416;2023-02-21T08:44:54;7.97;;;3.58;;
45077;SDS011;60508;42.622;25.416;2023-02-21T08:47:21;4.18;;;2.88;;
45077;SDS011;60508;42.622;25.416;2023-02-21T08:49:47;17.90;;;6.20;;
45077;SDS011;60508;42.622;25.416;2023-02-21T08:52:14;3.40;;;2.60;;
45077;SDS011;60508;42.622;25.416;2023-02-21T08:54:41;3.60;;;2.20;;
45077;SDS011;60508;42.622;25.416;2023-02-21T08:57:08;6.40;;;1.88;;
45077;SDS011;60508;42.622;25.416;2023-02-21T08:59:34;7.68;;;2.47;;
45077;SDS011;60508;42.622;25.416;2023-02-21T09:02:02;4.67;;;2.60;;
45077;SDS011;60508;42.622;25.416;2023-02-21T09:04:29;7.43;;;2.95;;
45077;SDS011;60508;42.622;25.416;2023-02-21T09:06:54;4.82;;;2.15;;
45077;SDS011;60508;42.622;25.416;2023-02-21T09:09:21;2.58;;;1.85;;
45077;SDS011;60508;42.622;25.416;2023-02-21T09:11:48;3.05;;;1.73;;
45077;SDS011;60508;42.622;25.416;2023-02-21T09:14:14;8.10;;;2.20;;
45077;SDS011;60508;42.622;25.416;2023-02-21T09:16:41;6.63;;;3.15;;
45077;SDS011;60508;42.622;25.416;2023-02-21T09:19:07;5.43;;;3.25;;
45077;SDS011;60508;42.622;25.416;2023-02-21T09:21:34;6.30;;;3.55;;
45077;SDS011;60508;42.622;25.416;2023-02-21T09:24:01;4.53;;;2.60;;
45077;SDS011;60508;42.622;25.416;2023-02-21T09:26:27;4.70;;;2.35;;
45077;SDS011;60508;42.622;25.416;2023-02-21T09:28:56;4.15;;;1.70;;
45077;SDS011;60508;42.622;25.416;2023-02-21T09:31:23;4.97;;;2.30;;
45077;SDS011;60508;42.622;25.416;2023-02-21T09:33:49;3.10;;;1.90;;
45077;SDS011;60508;42.622;25.416;2023-02-21T09:36:15;10.05;;;3.70;;
45077;SDS011;60508;42.622;25.416;2023-02-21T09:38:43;8.73;;;3.08;;
45077;SDS011;60508;42.622;25.416;2023-02-21T09:41:12;3.15;;;2.03;;
45077;SDS011;60508;42.622;25.416;2023-02-21T09:43:40;8.25;;;3.15;;
45077;SDS011;60508;42.622;25.416;2023-02-21T09:46:11;1.75;;;1.48;;
45077;SDS011;60508;42.622;25.416;2023-02-21T09:48:43;2.67;;;1.52;;
45077;SDS011;60508;42.622;25.416;2023-02-21T09:51:10;5.50;;;1.92;;
45077;SDS011;60508;42.622;25.416;2023-02-21T09:53:40;3.15;;;1.58;;
45077;SDS011;60508;42.622;25.416;2023-02-21T09:56:24;3.63;;;2.53;;
45077;SDS011;60508;42.622;25.416;2023-02-21T09:58:52;1.70;;;1.30;;
45077;SDS011;60508;42.622;25.416;2023-02-21T10:01:21;8.63;;;1.60;;
45077;SDS011;60508;42.622;25.416;2023-02-21T10:03:58;6.03;;;1.45;;
45077;SDS011;60508;42.622;25.416;2023-02-21T10:09:23;5.63;;;1.15;;
45077;SDS011;60508;42.622;25.416;2023-02-21T10:12:17;4.97;;;0.95;;
45077;SDS011;60508;42.622;25.416;2023-02-21T10:15:18;2.20;;;1.00;;
45077;SDS011;60508;42.622;25.416;2023-02-21T10:18:06;2.25;;;1.38;;
45077;SDS011;60508;42.622;25.416;2023-02-21T10:20:53;1.52;;;1.20;;
45077;SDS011;60508;42.622;25.416;2023-02-21T10:23:24;1.65;;;1.10;;
45077;SDS011;60508;42.622;25.416;2023-02-21T10:26:00;2.75;;;1.08;;
45077;SDS011;60508;42.622;25.416;2023-02-21T10:28:31;2.58;;;1.20;;
45077;SDS011;60508;42.622;25.416;2023-02-21T10:30:58;1.20;;;0.90;;
45077;SDS011;60508;42.622;25.416;2023-02-21T10:33:29;5.80;;;1.00;;
45077;SDS011;60508;42.622;25.416;2023-02-21T10:35:57;1.90;;;0.88;;
45077;SDS011;60508;42.622;25.416;2023-02-21T10:38:24;2.13;;;0.85;;
45077;SDS011;60508;42.622;25.416;2023-02-21T10:40:58;1.08;;;0.68;;
45077;SDS011;60508;42.622;25.416;2023-02-21T10:46:03;1.02;;;0.55;;
45077;SDS011;60508;42.622;25.416;2023-02-21T10:48:38;1.20;;;0.95;;
45077;SDS011;60508;42.622;25.416;2023-02-21T10:51:08;1.88;;;0.95;;
45077;SDS011;60508;42.622;25.416;2023-02-21T10:53:36;1.27;;;0.60;;
45077;SDS011;60508;42.622;25.416;2023-02-21T11:04:01;2.92;;;1.10;;
45077;SDS011;60508;42.622;25.416;2023-02-21T11:09:01;3.30;;;0.77;;
45077;SDS011;60508;42.622;25.416;2023-02-21T11:11:58;3.50;;;0.98;;
45077;SDS011;60508;42.622;25.416;2023-02-21T11:14:28;2.60;;;0.93;;
45077;SDS011;60508;42.622;25.416;2023-02-21T11:17:14;3.08;;;0.60;;
45077;SDS011;60508;42.622;25.416;2023-02-21T11:20:03;3.33;;;0.97;;
45077;SDS011;60508;42.622;25.416;2023-02-21T11:22:42;2.03;;;1.02;;
45077;SDS011;60508;42.622;25.416;2023-02-21T11:27:36;4.85;;;0.77;;
45077;SDS011;60508;42.622;25.416;2023-02-21T11:30:13;0.60;;;0.60;;
45077;SDS011;60508;42.622;25.416;2023-02-21T11:32:47;3.10;;;0.90;;
45077;SDS011;60508;42.622;25.416;2023-02-21T11:37:56;2.33;;;0.43;;
45077;SDS011;60508;42.622;25.416;2023-02-21T11:45:46;1.27;;;0.50;;
45077;SDS011;60508;42.622;25.416;2023-02-21T11:48:20;1.50;;;0.93;;
45077;SDS011;60508;42.622;25.416;2023-02-21T11:50:55;7.18;;;0.88;;
45077;SDS011;60508;42.622;25.416;2023-02-21T11:55:58;2.33;;;0.85;;
45077;SDS011;60508;42.622;25.416;2023-02-21T11:58:43;5.72;;;0.93;;
45077;SDS011;60508;42.622;25.416;2023-02-21T12:10:01;4.10;;;1.17;;
45077;SDS011;60508;42.622;25.416;2023-02-21T12:12:44;0.77;;;0.30;;
45077;SDS011;60508;42.622;25.416;2023-02-21T12:20:58;1.50;;;0.60;;
45077;SDS011;60508;42.622;25.416;2023-02-21T12:23:40;1.55;;;0.90;;
45077;SDS011;60508;42.622;25.416;2023-02-21T12:44:57;2.05;;;0.50;;
45077;SDS011;60508;42.622;25.416;2023-02-21T12:47:31;1.10;;;0.80;;
45077;SDS011;60508;42.622;25.416;2023-02-21T12:50:20;2.28;;;0.43;;
45077;SDS011;60508;42.622;25.416;2023-02-21T12:52:54;0.77;;;0.57;;
45077;SDS011;60508;42.622;25.416;2023-02-21T12:55:30;1.73;;;0.60;;
45077;SDS011;60508;42.622;25.416;2023-02-21T12:58:02;2.10;;;0.50;;
45077;SDS011;60508;42.622;25.416;2023-02-21T13:00:39;3.25;;;0.95;;
45077;SDS011;60508;42.622;25.416;2023-02-21T13:06:12;1.20;;;0.80;;
45077;SDS011;60508;42.622;25.416;2023-02-21T13:14:07;0.90;;;0.63;;
45077;SDS011;60508;42.622;25.416;2023-02-21T13:16:38;2.47;;;0.60;;
45077;SDS011;60508;42.622;25.416;2023-02-21T13:19:05;6.10;;;0.90;;
45077;SDS011;60508;42.622;25.416;2023-02-21T13:28:13;0.50;;;0.38;;
45077;SDS011;60508;42.622;25.416;2023-02-21T13:30:50;1.63;;;0.60;;
45077;SDS011;60508;42.622;25.416;2023-02-21T13:36:52;3.33;;;0.50;;
45077;SDS011;60508;42.622;25.416;2023-02-21T13:41:35;2.35;;;0.40;;
45077;SDS011;60508;42.622;25.416;2023-02-21T13:44:10;0.63;;;0.47;;
45077;SDS011;60508;42.622;25.416;2023-02-21T14:08:27;0.65;;;0.55;;
45077;SDS011;60508;42.622;25.416;2023-02-21T14:27:00;1.15;;;0.70;;
45077;SDS011;60508;42.622;25.416;2023-02-21T14:34:37;1.15;;;0.82;;
45077;SDS011;60508;42.622;25.416;2023-02-21T14:37:20;1.67;;;0.90;;
45077;SDS011;60508;42.622;25.416;2023-02-21T14:39:48;1.00;;;0.90;;
45077;SDS011;60508;42.622;25.416;2023-02-21T15:03:50;1.52;;;0.73;;
45077;SDS011;60508;42.622;25.416;2023-02-21T15:06:29;2.42;;;1.00;;
45077;SDS011;60508;42.622;25.416;2023-02-21T15:08:57;0.85;;;0.70;;
45077;SDS011;60508;42.622;25.416;2023-02-21T15:11:37;2.53;;;1.20;;
45077;SDS011;60508;42.622;25.416;2023-02-21T15:16:52;1.58;;;0.93;;
45077;SDS011;60508;42.622;25.416;2023-02-21T15:19:26;5.93;;;0.90;;
45077;SDS011;60508;42.622;25.416;2023-02-21T15:27:37;1.42;;;1.00;;
45077;SDS011;60508;42.622;25.416;2023-02-21T15:35:28;1.48;;;1.20;;
45077;SDS011;60508;42.622;25.416;2023-02-21T15:37:58;1.88;;;1.20;;
45077;SDS011;60508;42.622;25.416;2023-02-21T15:40:29;3.05;;;1.08;;
45077;SDS011;60508;42.622;25.416;2023-02-21T15:42:56;1.75;;;1.38;;
45077;SDS011;60508;42.622;25.416;2023-02-21T15:45:27;2.85;;;1.55;;
45077;SDS011;60508;42.622;25.416;2023-02-21T15:47:58;1.60;;;1.13;;
45077;SDS011;60508;42.622;25.416;2023-02-21T15:50:28;3.35;;;1.83;;
45077;SDS011;60508;42.622;25.416;2023-02-21T15:52:55;1.45;;;1.13;;
45077;SDS011;60508;42.622;25.416;2023-02-21T15:55:35;1.45;;;1.05;;
45077;SDS011;60508;42.622;25.416;2023-02-21T16:00:39;1.70;;;1.17;;
45077;SDS011;60508;42.622;25.416;2023-02-21T16:11:41;2.15;;;1.42;;
45077;SDS011;60508;42.622;25.416;2023-02-21T16:14:21;5.47;;;2.35;;
45077;SDS011;60508;42.622;25.416;2023-02-21T16:16:53;4.82;;;2.65;;
45077;SDS011;60508;42.622;25.416;2023-02-21T16:19:34;5.78;;;2.95;;
45077;SDS011;60508;42.622;25.416;2023-02-21T16:22:11;6.07;;;2.13;;
45077;SDS011;60508;42.622;25.416;2023-02-21T16:24:37;7.70;;;4.90;;
45077;SDS011;60508;42.622;25.416;2023-02-21T16:27:11;6.82;;;4.28;;
45077;SDS011;60508;42.622;25.416;2023-02-21T16:29:41;8.57;;;4.65;;
45077;SDS011;60508;42.622;25.416;2023-02-21T16:32:15;7.95;;;6.20;;
45077;SDS011;60508;42.622;25.416;2023-02-21T16:34:44;11.02;;;6.20;;
45077;SDS011;60508;42.622;25.416;2023-02-21T16:37:12;3.75;;;3.28;;
45077;SDS011;60508;42.622;25.416;2023-02-21T16:39:39;2.88;;;2.00;;
45077;SDS011;60508;42.622;25.416;2023-02-21T16:42:07;3.15;;;2.08;;
45077;SDS011;60508;42.622;25.416;2023-02-21T16:44:35;4.13;;;3.00;;
45077;SDS011;60508;42.622;25.416;2023-02-21T16:47:00;4.20;;;2.92;;
45077;SDS011;60508;42.622;25.416;2023-02-21T16:49:27;4.32;;;2.85;;
45077;SDS011;60508;42.622;25.416;2023-02-21T16:51:54;4.50;;;2.90;;
45077;SDS011;60508;42.622;25.416;2023-02-21T16:54:20;6.55;;;4.07;;
45077;SDS011;60508;42.622;25.416;2023-02-21T16:56:48;4.55;;;1.88;;
45077;SDS011;60508;42.622;25.416;2023-02-21T16:59:16;2.78;;;1.88;;
45077;SDS011;60508;42.622;25.416;2023-02-21T17:01:45;7.72;;;2.10;;
45077;SDS011;60508;42.622;25.416;2023-02-21T17:04:16;8.88;;;4.80;;
45077;SDS011;60508;42.622;25.416;2023-02-21T17:06:45;7.00;;;4.70;;
45077;SDS011;60508;42.622;25.416;2023-02-21T17:09:16;11.82;;;7.20;;
45077;SDS011;60508;42.622;25.416;2023-02-21T17:11:44;11.45;;;7.90;;
45077;SDS011;60508;42.622;25.416;2023-02-21T17:14:11;4.88;;;2.88;;
45077;SDS011;60508;42.622;25.416;2023-02-21T17:16:37;27.23;;;16.17;;
45077;SDS011;60508;42.622;25.416;2023-02-21T17:19:05;16.25;;;8.82;;
45077;SDS011;60508;42.622;25.416;2023-02-21T17:21:37;15.05;;;7.50;;
45077;SDS011;60508;42.622;25.416;2023-02-21T17:24:03;13.43;;;6.53;;
45077;SDS011;60508;42.622;25.416;2023-02-21T17:26:29;5.50;;;3.67;;
45077;SDS011;60508;42.622;25.416;2023-02-21T17:28:56;8.88;;;5.53;;
45077;SDS011;60508;42.622;25.416;2023-02-21T17:31:22;10.75;;;7.20;;
45077;SDS011;60508;42.622;25.416;2023-02-21T17:33:48;27.20;;;14.48;;
45077;SDS011;60508;42.622;25.416;2023-02-21T17:36:15;49.38;;;29.42;;
45077;SDS011;60508;42.622;25.416;2023-02-21T17:38:42;16.08;;;10.52;;
45077;SDS011;60508;42.622;25.416;2023-02-21T17:41:09;18.30;;;11.80;;
45077;SDS011;60508;42.622;25.416;2023-02-21T17:43:35;14.73;;;9.10;;
45077;SDS011;60508;42.622;25.416;2023-02-21T17:46:02;8.82;;;5.80;;
45077;SDS011;60508;42.622;25.416;2023-02-21T17:48:29;5.60;;;4.88;;
45077;SDS011;60508;42.622;25.416;2023-02-21T17:50:55;7.35;;;4.75;;
45077;SDS011;60508;42.622;25.416;2023-02-21T17:53:21;7.25;;;4.65;;
45077;SDS011;60508;42.622;25.416;2023-02-21T17:55:48;24.52;;;18.45;;
45077;SDS011;60508;42.622;25.416;2023-02-21T17:58:14;37.95;;;23.65;;
45077;SDS011;60508;42.622;25.416;2023-02-21T18:00:41;55.08;;;26.17;;
45077;SDS011;60508;42.622;25.416;2023-02-21T18:03:07;17.88;;;11.25;;
45077;SDS011;60508;42.622;25.416;2023-02-21T18:05:33;27.17;;;13.90;;
45077;SDS011;60508;42.622;25.416;2023-02-21T18:08:02;43.60;;;21.63;;
45077;SDS011;60508;42.622;25.416;2023-02-21T18:10:29;33.05;;;15.63;;
45077;SDS011;60508;42.622;25.416;2023-02-21T18:12:55;24.02;;;15.35;;
45077;SDS011;60508;42.622;25.416;2023-02-21T18:15:23;15.05;;;10.23;;
45077;SDS011;60508;42.622;25.416;2023-02-21T18:17:52;18.10;;;11.43;;
45077;SDS011;60508;42.622;25.416;2023-02-21T18:20:18;11.20;;;6.18;;
45077;SDS011;60508;42.622;25.416;2023-02-21T18:22:44;6.50;;;3.63;;
45077;SDS011;60508;42.622;25.416;2023-02-21T18:25:11;2.97;;;2.38;;
45077;SDS011;60508;42.622;25.416;2023-02-21T18:27:41;5.15;;;3.63;;